createdAt,value
2023-10-04T00:04:27.145Z,1.60
2023-10-04T00:09:30.458Z,1.60
2023-10-04T00:14:33.602Z,1.80
2023-10-04T00:19:40.321Z,1.60
2023-10-04T00:24:43.421Z,1.40
2023-10-04T00:29:47.032Z,1.77
2023-10-04T00:34:52.924Z,1.70
2023-10-04T00:39:56.175Z,1.73
2023-10-04T00:44:59.773Z,1.60
2023-10-04T00:50:16.447Z,1.43
2023-10-04T00:55:20.846Z,1.40
2023-10-04T01:00:24.537Z,1.80
2023-10-04T01:05:30.000Z,1.67
2023-10-04T01:10:34.617Z,1.60
2023-10-04T01:15:40.656Z,1.40
2023-10-04T01:20:46.252Z,1.53
2023-10-04T01:25:50.891Z,1.43
2023-10-04T01:30:54.868Z,1.60
2023-10-04T01:35:58.140Z,1.50
2023-10-04T01:41:05.551Z,1.40
2023-10-04T01:46:08.828Z,1.80
2023-10-04T01:51:13.886Z,1.83
2023-10-04T01:56:18.662Z,1.40
2023-10-04T02:01:21.976Z,1.67
2023-10-04T02:06:25.199Z,1.60
2023-10-04T02:11:32.216Z,1.50
2023-10-04T02:16:36.059Z,1.50
2023-10-04T02:21:39.665Z,1.60
2023-10-04T02:26:44.171Z,1.70
2023-10-04T02:31:47.291Z,1.70
2023-10-04T02:36:52.536Z,1.80
2023-10-04T02:41:57.018Z,1.53
2023-10-04T02:47:02.376Z,1.53
2023-10-04T02:52:07.449Z,1.73
2023-10-04T02:57:12.587Z,1.67
2023-10-04T03:02:15.725Z,1.50
2023-10-04T03:07:18.842Z,1.53
2023-10-04T03:12:25.559Z,1.60
2023-10-04T03:17:29.480Z,1.40
2023-10-04T03:22:32.639Z,1.60
2023-10-04T03:27:37.127Z,1.70
2023-10-04T03:32:40.295Z,1.60
2023-10-04T03:37:55.565Z,1.30
2023-10-04T03:43:00.304Z,1.60
2023-10-04T03:48:06.726Z,1.73
2023-10-04T03:53:10.587Z,1.40
2023-10-04T03:58:16.965Z,1.50
2023-10-04T04:03:20.667Z,1.70
2023-10-04T04:08:24.498Z,2.17
2023-10-04T04:13:29.033Z,2.10
2023-10-04T04:18:32.217Z,1.80
2023-10-04T04:23:36.388Z,1.90
2023-10-04T04:28:40.918Z,2.07
2023-10-04T04:33:44.233Z,2.00
2023-10-04T04:38:48.757Z,1.57
2023-10-04T04:43:53.463Z,1.40
2023-10-04T04:48:57.080Z,1.30
2023-10-04T04:54:00.537Z,1.30
2023-10-04T04:59:09.267Z,1.30
2023-10-04T05:04:13.192Z,1.40
2023-10-04T05:09:18.591Z,1.33
2023-10-04T05:14:23.464Z,1.20
2023-10-04T05:19:26.603Z,1.30
2023-10-04T05:24:30.169Z,1.60
2023-10-04T05:29:35.191Z,1.80
2023-10-04T05:34:38.343Z,1.70
2023-10-04T05:39:41.527Z,1.60
2023-10-04T05:44:46.027Z,2.00
2023-10-04T05:49:49.401Z,1.70
2023-10-04T05:54:52.566Z,1.63
2023-10-04T05:59:57.421Z,1.90
2023-10-04T06:05:00.981Z,1.70
2023-10-04T06:10:04.407Z,1.90
2023-10-04T06:15:11.701Z,1.90
2023-10-04T06:20:25.846Z,1.70
2023-10-04T06:25:31.255Z,2.30
2023-10-04T06:30:36.690Z,1.80
2023-10-04T06:35:42.729Z,2.20
2023-10-04T06:40:46.780Z,2.47
2023-10-04T06:45:51.923Z,2.40
2023-10-04T06:50:55.808Z,2.30
2023-10-04T06:55:59.265Z,2.50
2023-10-04T07:01:06.354Z,2.40
2023-10-04T07:06:10.540Z,2.60
2023-10-04T07:11:15.039Z,2.70
2023-10-04T07:16:19.784Z,3.00
2023-10-04T07:21:22.898Z,2.27
2023-10-04T07:26:26.345Z,2.60
2023-10-04T07:31:32.453Z,2.60
2023-10-04T07:36:37.369Z,2.70
2023-10-04T07:41:42.122Z,2.60
2023-10-04T07:46:46.925Z,2.40
2023-10-04T07:51:50.208Z,2.47
2023-10-04T07:56:53.372Z,2.17
2023-10-04T08:01:57.984Z,2.43
2023-10-04T08:07:01.118Z,2.23
2023-10-04T08:12:04.360Z,2.27
2023-10-04T08:17:10.195Z,2.30
2023-10-04T08:22:13.367Z,2.00
2023-10-04T08:27:17.272Z,2.37
2023-10-04T08:32:22.010Z,2.03
2023-10-04T08:37:25.293Z,2.07
2023-10-04T08:42:29.437Z,2.47
2023-10-04T08:47:34.743Z,2.40
2023-10-04T08:52:39.681Z,2.53
2023-10-04T08:57:45.111Z,2.50
2023-10-04T09:02:50.081Z,2.30
2023-10-04T09:07:53.253Z,2.30
2023-10-04T09:12:59.910Z,2.20
2023-10-04T09:18:06.536Z,2.00
2023-10-04T09:23:22.479Z,2.37
2023-10-04T09:28:39.496Z,2.23
2023-10-04T09:33:45.319Z,2.13
2023-10-04T09:39:08.328Z,1.90
2023-10-04T09:44:21.848Z,2.07
2023-10-04T09:49:29.787Z,2.07
2023-10-04T09:54:33.123Z,2.10
2023-10-04T09:59:38.311Z,2.10
2023-10-04T10:04:45.814Z,2.33
2023-10-04T10:10:01.167Z,2.27
2023-10-04T10:15:08.772Z,2.20
2023-10-04T10:20:16.343Z,2.40
2023-10-04T10:25:20.557Z,2.10
2023-10-04T10:30:24.684Z,2.03
2023-10-04T10:36:01.730Z,1.77
2023-10-04T10:41:04.943Z,2.37
2023-10-04T10:46:30.185Z,2.40
2023-10-04T10:51:44.587Z,2.30
2023-10-04T10:56:47.953Z,2.37
2023-10-04T11:01:51.577Z,2.30
2023-10-04T11:06:56.474Z,1.97
2023-10-04T11:11:59.736Z,2.10
2023-10-04T11:17:03.107Z,2.00
2023-10-04T11:22:09.359Z,2.30
2023-10-04T11:27:13.285Z,2.07
2023-10-04T11:32:16.778Z,2.00
2023-10-04T11:37:21.615Z,2.10
2023-10-04T11:42:26.423Z,1.90
2023-10-04T11:47:32.843Z,1.87
2023-10-04T11:52:37.811Z,2.00
2023-10-04T11:57:41.489Z,2.00
2023-10-04T12:02:44.977Z,1.73
2023-10-04T12:07:50.112Z,1.70
2023-10-04T12:12:56.376Z,1.50
2023-10-04T12:17:59.696Z,1.50
2023-10-04T12:23:04.479Z,1.47
2023-10-04T12:28:10.584Z,1.70
2023-10-04T12:33:14.208Z,1.73
2023-10-04T12:38:18.703Z,1.43
2023-10-04T12:43:22.014Z,1.60
2023-10-04T12:48:26.866Z,1.40
2023-10-04T12:53:31.446Z,1.77
2023-10-04T12:58:35.495Z,1.70
2023-10-04T13:03:38.869Z,1.60
2023-10-04T13:08:44.500Z,1.70
2023-10-04T13:13:48.775Z,1.70
2023-10-04T13:18:52.368Z,1.40
2023-10-04T13:23:57.253Z,1.40
2023-10-04T13:29:00.472Z,1.60
2023-10-04T13:34:06.655Z,1.60
2023-10-04T13:39:11.664Z,1.50
2023-10-04T13:44:17.182Z,1.40
2023-10-04T13:49:21.119Z,1.50
2023-10-04T13:54:26.550Z,1.50
2023-10-04T13:59:30.373Z,1.60
2023-10-04T14:04:33.915Z,1.80
2023-10-04T14:09:38.836Z,1.40
2023-10-04T14:14:42.498Z,1.40
2023-10-04T14:19:45.676Z,1.57
2023-10-04T14:24:52.248Z,1.50
2023-10-04T14:29:55.536Z,1.20
2023-10-04T14:34:58.690Z,1.40
2023-10-04T14:40:04.839Z,1.30
2023-10-04T14:45:09.407Z,1.40
2023-10-04T14:50:14.604Z,1.40
2023-10-04T14:55:20.713Z,1.60
2023-10-04T15:00:26.433Z,1.50
2023-10-04T15:05:29.864Z,1.40
2023-10-04T15:10:34.817Z,1.33
2023-10-04T15:15:45.872Z,1.30
2023-10-04T15:20:57.531Z,1.20
2023-10-04T15:26:02.523Z,1.20
2023-10-04T15:31:08.200Z,1.30
2023-10-04T15:36:11.842Z,1.13
2023-10-04T15:41:16.832Z,1.30
2023-10-04T15:46:20.098Z,1.27
2023-10-04T15:51:23.387Z,1.10
2023-10-04T15:56:28.410Z,1.30
2023-10-04T16:01:31.674Z,1.30
2023-10-04T16:06:38.582Z,1.40
2023-10-04T16:11:43.512Z,1.40
2023-10-04T16:16:46.679Z,1.47
2023-10-04T16:21:51.325Z,1.47
2023-10-04T16:26:56.032Z,1.50
2023-10-04T16:31:59.710Z,1.17
2023-10-04T16:37:02.948Z,1.23
2023-10-04T16:42:07.679Z,1.20
2023-10-04T16:47:10.859Z,1.30
2023-10-04T16:52:14.017Z,1.33
2023-10-04T16:57:19.791Z,1.30
2023-10-04T17:02:23.710Z,1.40
2023-10-04T17:07:27.241Z,1.33
2023-10-04T17:12:32.029Z,1.30
2023-10-04T17:17:35.248Z,1.70
2023-10-04T17:22:39.618Z,1.27
2023-10-04T17:27:44.725Z,1.33
2023-10-04T17:32:48.139Z,1.53
2023-10-04T17:37:51.331Z,1.30
2023-10-04T17:42:55.900Z,1.23
2023-10-04T17:47:59.524Z,1.50
2023-10-04T17:53:03.979Z,1.80
2023-10-04T17:58:08.612Z,3.23
2023-10-04T18:03:12.738Z,3.13
2023-10-04T18:08:16.267Z,2.50
2023-10-04T18:13:21.416Z,1.90
2023-10-04T18:18:24.822Z,1.60
2023-10-04T18:23:28.568Z,1.70
2023-10-04T18:28:33.265Z,1.60
2023-10-04T18:33:36.513Z,1.63
2023-10-04T18:38:39.701Z,1.67
2023-10-04T18:43:45.300Z,1.57
2023-10-04T18:48:48.507Z,1.40
2023-10-04T18:53:51.685Z,1.67
2023-10-04T18:58:56.659Z,1.60
2023-10-04T19:03:59.992Z,1.50
2023-10-04T19:09:05.755Z,1.80
2023-10-04T19:14:10.915Z,1.90
2023-10-04T19:19:14.134Z,1.83
2023-10-04T19:24:18.720Z,1.60
2023-10-04T19:29:23.343Z,1.90
2023-10-04T19:34:27.002Z,1.70
2023-10-04T19:39:31.782Z,2.30
2023-10-04T19:44:39.257Z,2.30
2023-10-04T19:49:43.293Z,2.33
2023-10-04T19:54:51.203Z,2.00
2023-10-04T19:59:56.038Z,2.40
2023-10-04T20:04:59.839Z,2.37
2023-10-04T20:10:03.184Z,2.33
2023-10-04T20:15:09.927Z,2.40
2023-10-04T20:20:17.702Z,2.40
2023-10-04T20:25:30.120Z,2.67
2023-10-04T20:30:35.847Z,2.73
2023-10-04T20:35:39.647Z,2.83
2023-10-04T20:40:43.800Z,6.30
2023-10-04T20:45:48.998Z,9.70
2023-10-04T20:50:53.461Z,6.90
2023-10-04T20:55:56.585Z,4.20
2023-10-04T21:01:03.767Z,3.87
2023-10-04T21:06:09.142Z,3.13
2023-10-04T21:11:13.036Z,2.50
2023-10-04T21:16:18.012Z,2.80
2023-10-04T21:21:21.258Z,2.90
2023-10-04T21:26:24.407Z,2.57
2023-10-04T21:31:29.295Z,2.70
2023-10-04T21:36:33.013Z,2.80
2023-10-04T21:41:43.411Z,2.10
2023-10-04T21:46:47.963Z,2.50
2023-10-04T21:51:55.292Z,2.20
2023-10-04T21:56:58.562Z,2.20
2023-10-04T22:02:03.954Z,2.37
2023-10-04T22:07:21.462Z,1.80
2023-10-04T22:12:25.662Z,2.07
2023-10-04T22:17:34.806Z,2.20
2023-10-04T22:22:37.951Z,2.13
2023-10-04T22:27:42.058Z,2.30
2023-10-04T22:32:49.193Z,2.30
2023-10-04T22:37:52.615Z,2.40
2023-10-04T22:42:59.026Z,2.50
2023-10-04T22:48:07.511Z,2.20
2023-10-04T22:53:10.696Z,2.13
2023-10-04T22:58:14.477Z,2.40
2023-10-04T23:03:22.136Z,1.97
2023-10-04T23:08:27.919Z,2.40
2023-10-04T23:13:31.703Z,2.10
2023-10-04T23:18:37.585Z,2.00
2023-10-04T23:23:52.442Z,2.07
2023-10-04T23:28:55.859Z,2.17
2023-10-04T23:34:00.795Z,2.27
2023-10-04T23:39:08.383Z,1.90
2023-10-04T23:44:13.824Z,2.00
2023-10-04T23:49:20.848Z,2.30
2023-10-04T23:54:26.994Z,2.20
2023-10-04T23:59:30.372Z,2.30
